Time;durP1;ratioP1;P1;durP2;ratioP2;P2;SDS_P1;SDS_P2;PMS_P1;PMS_P2;Temp;Humidity;BMP_temperature;BMP_pressure;BME280_temperature;BME280_humidity;BME280_pressure;Samples;Min_cycle;Max_cycle;Signal;HPM_P1;HPM_P2
2023/01/05 00:01:26;;;;;;;0.63;0.30;;;18.10;77.40;;;;;;5036505;28;20369;-78
2023/01/05 00:03:52;;;;;;;0.73;0.20;;;18.10;77.40;;;;;;5050458;28;20067;-78
2023/01/05 00:06:18;;;;;;;1.38;0.20;;;18.10;77.50;;;;;;5056207;28;20445;-78
2023/01/05 00:08:43;;;;;;;0.20;0.17;;;18.10;77.70;;;;;;5056498;28;20457;-77
2023/01/05 00:22:30;;;;;;;1.38;0.30;;;18.00;77.70;;;;;;5055116;28;20104;-77
2023/01/05 00:25:01;;;;;;;1.90;0.20;;;18.00;77.70;;;;;;5055134;28;20483;-77
2023/01/05 00:27:27;;;;;;;0.47;0.20;;;18.00;77.70;;;;;;5056104;28;20028;-77
2023/01/05 00:29:52;;;;;;;0.20;0.20;;;18.00;77.80;;;;;;5038243;28;20119;-77
2023/01/05 00:32:18;;;;;;;0.10;0.10;;;18.00;77.70;;;;;;5055742;28;20427;-77
2023/01/05 00:34:44;;;;;;;1.33;0.08;;;17.90;77.80;;;;;;5055594;28;20025;-77
2023/01/05 00:37:09;;;;;;;0.17;0.17;;;17.90;77.80;;;;;;5048278;28;20049;-77
2023/01/05 00:39:35;;;;;;;1.77;0.32;;;17.90;77.80;;;;;;5035850;28;20029;-77
2023/01/05 00:42:01;;;;;;;0.93;0.20;;;17.90;77.90;;;;;;5068132;28;20022;-77
2023/01/05 00:44:26;;;;;;;0.73;0.20;;;17.90;77.90;;;;;;5035835;28;20097;-76
2023/01/05 00:46:52;;;;;;;1.38;0.17;;;17.90;79.00;;;;;;5033446;28;20101;-77
2023/01/05 00:49:17;;;;;;;4.50;0.28;;;17.90;78.10;;;;;;5035057;28;20053;-77
2023/01/05 00:51:43;;;;;;;0.32;0.20;;;17.90;78.10;;;;;;5033711;28;20068;-77
2023/01/05 00:54:09;;;;;;;0.47;0.28;;;17.90;78.20;;;;;;5034985;28;20051;-77
2023/01/05 00:56:34;;;;;;;1.75;0.28;;;17.80;78.20;;;;;;5034850;28;20056;-77
2023/01/05 00:59:00;;;;;;;0.43;0.20;;;17.80;78.30;;;;;;5033446;28;20029;-77
2023/01/05 01:01:25;;;;;;;0.63;0.30;;;17.90;78.30;;;;;;5034470;28;20021;-78
2023/01/05 01:03:51;;;;;;;2.05;0.30;;;17.80;78.30;;;;;;5034600;28;20041;-78
2023/01/05 01:06:17;;;;;;;0.65;0.40;;;17.80;78.50;;;;;;5033334;28;20112;-77
2023/01/05 01:08:42;;;;;;;0.50;0.22;;;17.80;78.60;;;;;;5034515;28;20030;-77
2023/01/05 01:11:08;;;;;;;3.25;0.38;;;17.80;78.50;;;;;;5034755;28;20483;-77
2023/01/05 01:13:34;;;;;;;0.55;0.30;;;17.80;78.50;;;;;;5033192;28;20124;-77
2023/01/05 01:16:07;;;;;;;2.17;0.68;;;17.80;78.50;;;;;;5033247;28;20021;-77
2023/01/05 01:18:33;;;;;;;1.13;0.20;;;17.80;78.50;;;;;;5033335;28;20105;-78
2023/01/05 01:20:59;;;;;;;0.17;0.17;;;17.80;78.50;;;;;;5029705;28;20540;-77
2023/01/05 01:23:25;;;;;;;2.45;0.20;;;17.80;78.50;;;;;;5014638;28;20037;-78
2023/01/05 01:25:50;;;;;;;1.20;0.20;;;17.80;78.50;;;;;;5014690;28;20036;-77
2023/01/05 01:28:16;;;;;;;0.40;0.20;;;17.80;78.60;;;;;;5014439;28;20120;-77
2023/01/05 01:30:41;;;;;;;1.25;0.10;;;17.80;78.50;;;;;;5014182;28;20547;-77
2023/01/05 01:33:07;;;;;;;0.88;0.10;;;17.70;78.40;;;;;;5026724;28;20021;-77
2023/01/05 01:35:33;;;;;;;0.63;0.30;;;17.80;78.50;;;;;;5034135;28;20037;-77
2023/01/05 01:37:58;;;;;;;0.25;0.25;;;17.80;78.50;;;;;;5066239;28;20025;-77
2023/01/05 01:40:24;;;;;;;0.70;0.10;;;17.80;78.50;;;;;;5034190;28;20048;-77
2023/01/05 01:42:50;;;;;;;0.30;0.10;;;17.70;78.50;;;;;;5033968;28;20017;-77
2023/01/05 01:45:21;;;;;;;0.30;0.20;;;17.70;78.50;;;;;;5033932;28;20032;-78
2023/01/05 01:47:55;;;;;;;0.32;0.22;;;17.70;78.40;;;;;;5033916;28;20036;-77
2023/01/05 01:50:42;;;;;;;0.20;0.20;;;17.70;78.40;;;;;;5065899;28;20029;-77
2023/01/05 01:53:20;;;;;;;0.85;0.55;;;17.70;78.50;;;;;;5065402;28;20018;-77
2023/01/05 01:55:45;;;;;;;1.27;0.20;;;17.70;78.40;;;;;;5065849;28;20108;-78
2023/01/05 01:58:15;;;;;;;2.00;0.35;;;17.70;78.50;;;;;;5032214;28;20568;-77
2023/01/05 02:00:41;;;;;;;1.42;0.40;;;17.70;78.50;;;;;;5065594;28;20021;-76
2023/01/05 02:03:06;;;;;;;0.52;0.10;;;17.70;78.50;;;;;;5033190;28;20042;-77
2023/01/05 02:05:32;;;;;;;2.97;0.10;;;17.70;78.60;;;;;;5033704;28;20101;-77
2023/01/05 02:07:58;;;;;;;1.60;0.20;;;17.70;78.70;;;;;;5032427;28;20071;-77
2023/01/05 02:10:47;;;;;;;0.43;0.15;;;17.70;78.60;;;;;;5015766;28;20108;-77
2023/01/05 02:13:18;;;;;;;1.05;0.28;;;17.70;78.60;;;;;;5017682;28;20029;-77
2023/01/05 02:15:54;;;;;;;0.50;0.30;;;17.70;78.70;;;;;;5033106;28;20033;-78
2023/01/05 02:18:30;;;;;;;0.30;0.20;;;17.60;78.70;;;;;;5033394;28;20025;-78
2023/01/05 02:21:20;;;;;;;0.38;0.20;;;17.60;78.70;;;;;;5032084;28;20018;-77
2023/01/05 02:24:07;;;;;;;0.22;0.22;;;17.60;78.70;;;;;;5032230;28;20047;-77
2023/01/05 02:26:39;;;;;;;0.50;0.17;;;17.60;78.70;;;;;;5032062;28;20100;-77
2023/01/05 02:29:30;;;;;;;1.77;0.60;;;17.60;78.70;;;;;;5033052;28;20025;-76
2023/01/05 02:32:24;;;;;;;3.20;0.35;;;17.60;78.70;;;;;;5032187;28;20192;-76
2023/01/05 02:35:16;;;;;;;0.40;0.20;;;17.60;78.80;;;;;;5031585;28;20029;-77
2023/01/05 02:37:57;;;;;;;1.25;0.20;;;17.60;78.70;;;;;;5031725;28;20053;-76
2023/01/05 02:40:28;;;;;;;0.50;0.25;;;17.60;78.80;;;;;;5032861;28;20022;-77
2023/01/05 02:42:54;;;;;;;0.63;0.20;;;17.60;78.90;;;;;;5031312;28;20017;-77
2023/01/05 02:45:21;;;;;;;2.17;0.20;;;17.50;78.80;;;;;;5031884;28;20031;-76
2023/01/05 02:47:47;;;;;;;1.80;0.20;;;17.50;78.80;;;;;;5031619;28;20040;-76
2023/01/05 02:50:59;;;;;;;0.20;0.10;;;17.50;78.90;;;;;;5031571;28;20092;-77
2023/01/05 02:53:42;;;;;;;0.20;0.20;;;17.50;78.80;;;;;;5029536;28;20045;-76
2023/01/05 02:56:12;;;;;;;0.65;0.10;;;17.50;78.80;;;;;;5031483;28;20563;-77
2023/01/05 02:58:40;;;;;;;0.22;0.10;;;17.50;78.80;;;;;;5031343;28;20032;-77
2023/01/05 03:01:22;;;;;;;0.32;0.10;;;17.50;78.90;;;;;;5014937;28;20029;-77
2023/01/05 03:03:53;;;;;;;0.22;0.20;;;17.50;78.90;;;;;;5032471;28;20049;-77
2023/01/05 03:06:28;;;;;;;2.67;0.52;;;17.50;78.80;;;;;;5031309;28;20017;-77
2023/01/05 03:08:58;;;;;;;0.50;0.30;;;17.50;79.00;;;;;;5031900;28;20067;-77
2023/01/05 03:14:11;;;;;;;1.17;0.20;;;17.40;78.90;;;;;;5031320;28;20040;-77
2023/01/05 03:16:38;;;;;;;0.70;0.20;;;17.40;78.90;;;;;;5031446;28;20543;-76
2023/01/05 03:35:42;;;;;;;1.73;0.30;;;17.40;79.00;;;;;;5025857;28;20412;-78
2023/01/05 03:38:29;;;;;;;0.40;0.20;;;17.40;79.00;;;;;;5011325;28;20105;-76
2023/01/05 03:40:56;;;;;;;0.47;0.20;;;17.40;79.10;;;;;;5012295;28;20022;-76
2023/01/05 03:43:22;;;;;;;0.20;0.20;;;17.40;79.20;;;;;;5028014;28;20510;-77
2023/01/05 03:45:52;;;;;;;0.15;0.10;;;17.40;79.20;;;;;;5011310;28;20026;-76
2023/01/05 03:48:19;;;;;;;1.90;0.40;;;17.40;79.20;;;;;;5011121;28;20034;-76
2023/01/05 03:50:45;;;;;;;0.63;0.10;;;17.40;79.20;;;;;;5027498;28;20108;-76
2023/01/05 03:53:11;;;;;;;1.33;0.28;;;17.40;79.20;;;;;;5027745;28;20069;-76
2023/01/05 03:55:37;;;;;;;0.40;0.13;;;17.40;79.20;;;;;;5028691;28;20075;-77
2023/01/05 03:58:02;;;;;;;1.85;0.30;;;17.30;79.10;;;;;;5030144;28;20029;-74
2023/01/05 04:00:28;;;;;;;7.03;0.32;;;17.30;79.20;;;;;;5063698;28;20030;-76
2023/01/05 04:02:54;;;;;;;0.80;0.20;;;17.30;79.10;;;;;;5030263;28;20045;-76
2023/01/05 04:05:19;;;;;;;0.47;0.20;;;17.30;79.20;;;;;;5028933;28;20025;-76
2023/01/05 04:07:45;;;;;;;3.15;0.30;;;17.30;79.20;;;;;;5031682;28;20033;-76
2023/01/05 04:10:10;;;;;;;1.00;0.40;;;17.30;79.20;;;;;;5045316;28;20109;-76
2023/01/05 04:12:36;;;;;;;1.60;0.65;;;17.30;79.20;;;;;;5031823;28;20022;-76
2023/01/05 04:15:05;;;;;;;2.63;0.20;;;17.30;79.30;;;;;;5061697;28;20021;-76
2023/01/05 04:17:31;;;;;;;0.82;0.10;;;17.30;79.30;;;;;;5061634;28;20013;-76
2023/01/05 04:19:56;;;;;;;0.22;0.10;;;17.30;79.40;;;;;;5032503;28;20430;-76
2023/01/05 04:22:22;;;;;;;1.33;0.10;;;17.30;79.30;;;;;;5036463;28;20500;-76
2023/01/05 04:24:48;;;;;;;4.38;0.77;;;17.30;79.40;;;;;;5065189;28;20033;-75
2023/01/05 04:27:13;;;;;;;0.13;0.13;;;17.30;79.30;;;;;;5037067;28;20032;-76
2023/01/05 04:29:39;;;;;;;0.17;0.17;;;17.30;79.40;;;;;;5065550;28;20563;-76
2023/01/05 04:32:05;;;;;;;7.68;0.28;;;17.30;79.40;;;;;;5035035;28;20030;-76
2023/01/05 04:34:30;;;;;;;1.83;0.20;;;17.30;79.30;;;;;;5066391;28;20041;-76
2023/01/05 04:36:56;;;;;;;1.30;0.30;;;17.30;79.40;;;;;;5034045;28;20021;-76
2023/01/05 04:39:22;;;;;;;0.32;0.17;;;17.20;79.40;;;;;;5034945;28;20034;-76
2023/01/05 04:41:47;;;;;;;0.35;0.10;;;17.20;79.30;;;;;;5067234;28;20033;-76
2023/01/05 04:44:13;;;;;;;2.28;0.20;;;17.20;79.40;;;;;;5067212;28;20392;-76
2023/01/05 04:46:39;;;;;;;0.30;0.20;;;17.30;79.40;;;;;;5035223;28;20395;-76
2023/01/05 04:49:05;;;;;;;1.17;0.28;;;17.20;79.30;;;;;;5035162;28;20025;-76
2023/01/05 04:51:30;;;;;;;0.50;0.25;;;17.20;79.30;;;;;;5053635;28;20088;-77
2023/01/05 04:53:56;;;;;;;0.82;0.20;;;17.20;79.30;;;;;;5053623;28;20032;-77
2023/01/05 04:56:22;;;;;;;0.65;0.15;;;17.20;79.40;;;;;;5054976;28;20036;-77
2023/01/05 04:58:47;;;;;;;2.83;0.20;;;17.20;79.30;;;;;;5053625;28;20033;-77
2023/01/05 05:01:13;;;;;;;0.85;0.25;;;17.20;79.50;;;;;;5053489;28;20052;-77
2023/01/05 05:03:38;;;;;;;1.77;0.20;;;17.20;79.40;;;;;;5042348;28;20040;-76
2023/01/05 05:06:04;;;;;;;1.38;0.30;;;17.20;79.50;;;;;;5039636;28;20104;-77
2023/01/05 05:08:30;;;;;;;2.28;0.20;;;17.20;79.50;;;;;;5053345;28;20055;-76
2023/01/05 05:10:56;;;;;;;1.75;0.10;;;17.20;79.50;;;;;;5036781;28;20104;-76
2023/01/05 05:13:21;;;;;;;0.85;0.20;;;17.20;79.50;;;;;;5036732;28;20025;-76
2023/01/05 05:15:47;;;;;;;0.50;0.22;;;17.20;79.50;;;;;;5054387;28;20021;-77
2023/01/05 05:18:12;;;;;;;0.13;0.10;;;17.20;79.50;;;;;;5053471;28;20021;-76
2023/01/05 05:20:40;;;;;;;0.38;0.20;;;17.20;79.50;;;;;;5052600;28;20039;-77
2023/01/05 05:23:05;;;;;;;0.80;0.20;;;17.20;79.50;;;;;;5032932;28;20029;-77
2023/01/05 05:25:31;;;;;;;0.25;0.17;;;17.20;79.50;;;;;;5034281;28;20036;-76
2023/01/05 05:27:57;;;;;;;1.65;0.20;;;17.20;79.50;;;;;;5034345;28;20030;-76
2023/01/05 05:30:22;;;;;;;0.30;0.20;;;17.20;79.40;;;;;;5034442;28;20080;-77
2023/01/05 05:32:48;;;;;;;0.43;0.20;;;17.20;79.50;;;;;;5033608;28;20029;-77
2023/01/05 05:35:14;;;;;;;1.70;0.50;;;17.10;79.40;;;;;;5066381;28;20064;-76
2023/01/05 05:37:39;;;;;;;0.10;0.10;;;17.10;79.50;;;;;;5033918;28;20029;-77
2023/01/05 05:40:05;;;;;;;0.38;0.10;;;17.10;79.40;;;;;;5033974;28;20022;-77
2023/01/05 05:42:31;;;;;;;0.03;0.03;;;17.10;79.40;;;;;;5065910;28;20025;-77
2023/01/05 05:44:56;;;;;;;0.38;0.13;;;17.10;79.50;;;;;;5049695;28;20031;-77
2023/01/05 05:47:22;;;;;;;1.27;0.22;;;17.10;79.40;;;;;;5047108;28;20108;-77
2023/01/05 05:49:48;;;;;;;0.55;0.13;;;17.10;79.50;;;;;;5033872;28;20030;-76
2023/01/05 05:52:13;;;;;;;0.30;0.10;;;17.10;79.50;;;;;;5033435;28;20061;-77
2023/01/05 05:54:39;;;;;;;0.35;0.10;;;17.10;79.50;;;;;;5033831;28;20032;-77
2023/01/05 05:57:05;;;;;;;0.73;0.13;;;17.10;79.50;;;;;;5015988;28;20029;-78
2023/01/05 05:59:30;;;;;;;1.27;0.10;;;17.10;79.60;;;;;;5033538;28;20024;-78
2023/01/05 06:01:56;;;;;;;2.85;0.22;;;17.10;79.60;;;;;;5033545;28;20077;-78
2023/01/05 06:04:22;;;;;;;1.55;0.10;;;17.10;79.60;;;;;;5032149;28;20507;-78
2023/01/05 06:06:47;;;;;;;0.57;0.20;;;17.10;79.60;;;;;;5032409;28;20065;-78
2023/01/05 06:09:13;;;;;;;1.95;0.10;;;17.10;79.60;;;;;;5033643;28;20056;-78
2023/01/05 06:11:38;;;;;;;0.15;0.10;;;17.10;79.50;;;;;;5033390;28;20037;-78
2023/01/05 06:14:05;;;;;;;0.57;0.10;;;17.00;79.50;;;;;;5032153;28;20402;-77
2023/01/05 06:16:30;;;;;;;0.10;0.10;;;17.00;79.60;;;;;;5033457;28;20395;-77
2023/01/05 06:18:56;;;;;;;0.93;0.15;;;17.00;79.60;;;;;;5032149;28;20017;-77
2023/01/05 06:21:22;;;;;;;0.50;0.17;;;17.00;79.70;;;;;;5025312;28;20017;-78
2023/01/05 06:23:47;;;;;;;0.32;0.03;;;17.00;79.70;;;;;;5012275;28;20029;-77
2023/01/05 06:26:13;;;;;;;2.05;0.22;;;17.10;79.80;;;;;;5013405;28;20506;-78
2023/01/05 06:28:39;;;;;;;1.55;0.30;;;17.00;79.60;;;;;;5012363;28;20575;-77
2023/01/05 06:31:04;;;;;;;0.30;0.10;;;17.00;79.70;;;;;;5014268;28;20033;-77
2023/01/05 06:33:30;;;;;;;0.30;0.10;;;17.00;79.70;;;;;;5044333;28;20480;-77
2023/01/05 06:35:57;;;;;;;0.32;0.10;;;17.00;79.70;;;;;;5048257;28;20415;-77
2023/01/05 06:38:23;;;;;;;1.20;0.20;;;17.00;79.70;;;;;;5064446;28;20095;-77
2023/01/05 06:40:49;;;;;;;1.77;0.35;;;17.00;79.70;;;;;;5048486;28;20037;-77
2023/01/05 06:43:15;;;;;;;1.52;0.30;;;17.00;79.60;;;;;;5064237;28;20021;-76
2023/01/05 06:45:40;;;;;;;0.47;0.20;;;17.00;79.70;;;;;;5064625;28;20108;-77
2023/01/05 06:48:06;;;;;;;0.47;0.20;;;17.00;79.70;;;;;;5064616;28;20064;-77
2023/01/05 06:50:31;;;;;;;2.00;0.20;;;17.00;79.90;;;;;;5064793;28;20071;-77
2023/01/05 06:52:58;;;;;;;0.38;0.10;;;17.00;79.80;;;;;;5030652;28;20514;-76
2023/01/05 06:55:24;;;;;;;0.20;0.20;;;17.00;79.90;;;;;;5048454;28;20018;-77
2023/01/05 06:57:49;;;;;;;1.85;0.10;;;17.00;79.90;;;;;;5048238;28;20018;-77
2023/01/05 07:00:15;;;;;;;2.15;0.20;;;17.00;80.00;;;;;;5037431;28;20067;-76
2023/01/05 07:02:41;;;;;;;0.65;0.40;;;16.90;79.80;;;;;;5041819;28;20412;-76
2023/01/05 07:05:07;;;;;;;0.63;0.30;;;16.90;79.90;;;;;;5035207;28;20029;-77
2023/01/05 07:07:33;;;;;;;0.63;0.30;;;17.00;79.90;;;;;;5063123;28;20075;-77
2023/01/05 07:09:58;;;;;;;0.10;0.10;;;16.90;80.00;;;;;;5043168;28;20033;-76
2023/01/05 07:12:24;;;;;;;0.65;0.30;;;16.90;80.00;;;;;;5065375;28;20036;-78
2023/01/05 07:14:50;;;;;;;2.80;0.25;;;16.90;80.00;;;;;;5047775;28;20029;-78
2023/01/05 07:17:15;;;;;;;9.07;0.32;;;17.00;80.00;;;;;;5042609;28;20040;-78
2023/01/05 07:19:41;;;;;;;5.00;0.32;;;17.00;79.80;;;;;;5044366;28;20021;-77
2023/01/05 07:22:07;;;;;;;0.30;0.20;;;17.00;79.70;;;;;;5044664;28;20078;-77
2023/01/05 07:24:32;;;;;;;3.33;0.20;;;16.90;79.50;;;;;;5040028;28;20068;-77
2023/01/05 07:26:58;;;;;;;0.63;0.35;;;16.90;79.30;;;;;;5047264;28;20033;-78
2023/01/05 07:29:24;;;;;;;2.83;0.50;;;16.90;79.20;;;;;;5047189;28;20025;-77
2023/01/05 07:31:52;;;;;;;1.77;0.47;;;16.90;79.10;;;;;;5062582;28;20507;-77
2023/01/05 07:34:19;;;;;;;0.98;0.47;;;16.90;79.00;;;;;;5065148;28;20032;-77
2023/01/05 07:36:45;;;;;;;0.50;0.20;;;16.90;78.70;;;;;;5045300;28;20101;-78
2023/01/05 07:39:10;;;;;;;0.63;0.20;;;16.80;78.60;;;;;;5048444;28;20093;-80
2023/01/05 07:41:36;;;;;;;1.55;0.30;;;16.80;78.50;;;;;;5047650;28;20051;-77
2023/01/05 07:44:02;;;;;;;1.10;0.20;;;16.90;78.40;;;;;;5051641;28;20487;-77
2023/01/05 07:46:27;;;;;;;4.30;0.82;;;16.90;78.30;;;;;;5052093;28;20021;-77
2023/01/05 07:48:53;;;;;;;6.18;1.20;;;16.90;78.40;;;;;;5051797;28;20422;-78
2023/01/05 07:51:18;;;;;;;13.55;2.45;;;16.80;78.30;;;;;;5051714;28;20483;-77
2023/01/05 07:53:44;;;;;;;17.23;2.35;;;16.90;78.50;;;;;;5049788;28;20033;-77
2023/01/05 07:56:10;;;;;;;9.15;2.20;;;16.90;78.50;;;;;;5054540;28;20025;-77
2023/01/05 07:58:36;;;;;;;9.82;2.15;;;16.80;78.50;;;;;;5054606;28;20106;-77
2023/01/05 08:01:03;;;;;;;13.23;2.40;;;16.80;78.50;;;;;;5054540;28;20048;-77
2023/01/05 08:03:29;;;;;;;12.10;1.50;;;16.80;78.40;;;;;;5044710;28;20053;-77
2023/01/05 08:05:54;;;;;;;12.07;2.05;;;16.80;78.40;;;;;;5034812;28;20037;-78
2023/01/05 08:08:20;;;;;;;11.55;1.90;;;16.80;78.50;;;;;;5033420;28;20030;-78
2023/01/05 08:10:46;;;;;;;10.05;2.58;;;16.80;78.50;;;;;;5034421;28;20026;-77
2023/01/05 08:15:56;;;;;;;11.57;2.92;;;16.80;78.50;;;;;;5035802;28;20117;-78
2023/01/05 08:18:22;;;;;;;9.98;2.08;;;16.80;78.40;;;;;;5034142;28;20026;-78
2023/01/05 08:20:55;;;;;;;10.68;2.00;;;16.80;78.50;;;;;;5032254;28;20100;-77
2023/01/05 08:23:21;;;;;;;11.13;2.30;;;16.80;78.40;;;;;;5014603;28;20076;-77
2023/01/05 08:25:47;;;;;;;11.82;2.60;;;16.80;78.30;;;;;;5014797;28;20026;-77
2023/01/05 08:28:13;;;;;;;8.50;1.90;;;16.70;78.30;;;;;;5014489;28;20026;-78
2023/01/05 08:30:38;;;;;;;7.90;2.13;;;16.70;78.40;;;;;;5014396;28;20053;-77
2023/01/05 08:33:04;;;;;;;9.73;2.17;;;16.70;78.40;;;;;;5014274;28;20037;-77
2023/01/05 08:35:30;;;;;;;10.35;1.92;;;16.70;78.40;;;;;;5014483;28;20022;-77
2023/01/05 08:37:56;;;;;;;8.13;2.30;;;16.80;78.40;;;;;;5014573;28;20112;-77
2023/01/05 08:40:21;;;;;;;9.57;2.40;;;16.70;78.30;;;;;;5015602;28;20112;-77
2023/01/05 08:42:47;;;;;;;15.65;2.20;;;16.80;78.30;;;;;;5015412;28;20029;-77
2023/01/05 08:45:16;;;;;;;8.73;2.53;;;16.70;78.20;;;;;;5013990;28;20029;-78
2023/01/05 08:47:41;;;;;;;5.95;1.90;;;16.70;78.20;;;;;;5014053;28;20515;-77
2023/01/05 08:50:08;;;;;;;8.55;2.22;;;16.70;78.10;;;;;;5013937;28;20023;-78
2023/01/05 08:52:34;;;;;;;5.60;2.00;;;16.70;78.10;;;;;;5014025;28;20025;-77
2023/01/05 08:55:00;;;;;;;7.28;2.25;;;16.70;78.20;;;;;;5014071;28;20050;-77
2023/01/05 08:57:26;;;;;;;6.65;2.20;;;16.70;78.30;;;;;;5013652;28;20404;-77
2023/01/05 08:59:51;;;;;;;7.50;1.73;;;16.60;78.20;;;;;;5013976;28;20022;-78
2023/01/05 09:02:17;;;;;;;9.38;2.08;;;16.70;78.20;;;;;;5015301;28;20050;-78
2023/01/05 09:04:43;;;;;;;7.70;2.75;;;16.70;78.10;;;;;;5033620;28;20546;-77
2023/01/05 09:07:10;;;;;;;8.55;2.00;;;16.70;78.10;;;;;;5033514;28;20057;-77
2023/01/05 09:09:35;;;;;;;6.57;2.35;;;16.70;78.00;;;;;;5034713;28;20021;-77
2023/01/05 09:12:01;;;;;;;9.55;2.47;;;16.70;78.00;;;;;;5034750;28;20035;-77
2023/01/05 09:14:27;;;;;;;6.22;2.28;;;16.60;77.90;;;;;;5033186;28;20032;-77
2023/01/05 09:16:52;;;;;;;7.43;1.80;;;16.60;77.90;;;;;;5034536;28;20076;-78
2023/01/05 09:19:18;;;;;;;7.47;1.83;;;16.60;78.00;;;;;;5034592;28;20026;-77
2023/01/05 09:21:44;;;;;;;6.40;2.22;;;16.60;78.10;;;;;;5034387;28;20022;-78
2023/01/05 09:24:13;;;;;;;5.63;1.77;;;16.60;78.20;;;;;;5034477;28;20030;-77
2023/01/05 09:26:39;;;;;;;6.93;2.00;;;16.60;78.10;;;;;;5033296;28;20177;-77
2023/01/05 09:29:05;;;;;;;6.43;2.00;;;16.60;78.00;;;;;;5032970;28;20018;-78
2023/01/05 09:31:30;;;;;;;7.53;2.25;;;16.60;77.90;;;;;;5034301;28;20025;-78
2023/01/05 09:33:57;;;;;;;4.18;1.63;;;16.60;77.90;;;;;;5034306;28;20048;-78
2023/01/05 09:36:23;;;;;;;6.55;1.70;;;16.60;77.90;;;;;;5032876;28;20097;-77
2023/01/05 09:38:52;;;;;;;5.32;2.03;;;16.60;78.00;;;;;;5034121;28;20021;-77
2023/01/05 09:41:38;;;;;;;8.25;2.00;;;16.60;78.00;;;;;;5032821;28;20033;-77
2023/01/05 09:44:38;;;;;;;6.30;2.08;;;16.50;78.00;;;;;;5032752;28;20078;-77
2023/01/05 09:47:10;;;;;;;5.68;2.05;;;16.50;78.00;;;;;;5063441;28;20500;-78
2023/01/05 09:49:35;;;;;;;5.77;1.87;;;16.50;78.00;;;;;;5033935;28;20100;-77
2023/01/05 09:52:07;;;;;;;4.05;1.65;;;16.50;78.00;;;;;;5032780;28;20311;-77
2023/01/05 09:54:33;;;;;;;5.88;1.83;;;16.50;78.00;;;;;;5032870;28;20502;-78
2023/01/05 09:56:59;;;;;;;6.55;1.88;;;16.50;78.00;;;;;;5032584;28;20104;-77
2023/01/05 09:59:33;;;;;;;4.28;1.75;;;16.50;78.00;;;;;;5032204;28;20101;-77
2023/01/05 10:02:00;;;;;;;5.20;1.67;;;16.50;79.00;;;;;;5032569;28;20136;-77
2023/01/05 10:04:30;;;;;;;4.95;1.33;;;16.50;78.10;;;;;;5032339;28;20454;-77
2023/01/05 10:07:07;;;;;;;5.32;1.50;;;16.50;78.10;;;;;;5032283;28;20037;-77
2023/01/05 10:09:38;;;;;;;7.25;1.70;;;16.50;78.10;;;;;;5032291;28;20492;-77
2023/01/05 10:15:42;;;;;;;6.93;1.75;;;16.40;77.90;;;;;;5033415;28;20068;-77
2023/01/05 10:18:24;;;;;;;6.28;1.90;;;16.50;77.90;;;;;;5031699;28;20172;-77
2023/01/05 10:21:08;;;;;;;3.78;1.75;;;16.40;77.90;;;;;;5029878;28;20476;-77
2023/01/05 10:23:34;;;;;;;6.25;1.58;;;16.50;78.00;;;;;;5013610;28;20025;-78
2023/01/05 10:26:25;;;;;;;3.78;1.58;;;16.40;78.00;;;;;;5013531;28;20037;-77
2023/01/05 10:29:06;;;;;;;6.88;1.95;;;16.40;78.00;;;;;;5013080;28;20050;-77
2023/01/05 10:31:40;;;;;;;5.50;1.75;;;16.40;78.00;;;;;;5012150;28;20037;-78
2023/01/05 10:34:23;;;;;;;7.20;1.92;;;16.40;78.00;;;;;;5013334;28;20037;-78
2023/01/05 10:37:03;;;;;;;6.55;1.70;;;16.40;78.00;;;;;;5012037;28;20021;-78
2023/01/05 10:39:32;;;;;;;3.58;1.40;;;16.40;78.00;;;;;;5013326;28;20548;-77
2023/01/05 10:42:11;;;;;;;6.75;1.50;;;16.40;78.10;;;;;;5013152;28;20014;-77
2023/01/05 10:44:37;;;;;;;3.65;1.33;;;16.40;78.10;;;;;;5012049;28;20033;-77
2023/01/05 10:47:02;;;;;;;5.20;1.52;;;16.40;78.10;;;;;;5013068;28;20409;-77
2023/01/05 10:49:29;;;;;;;4.50;1.52;;;16.40;78.10;;;;;;5011827;28;20029;-78
2023/01/05 10:51:59;;;;;;;5.88;1.60;;;16.40;78.10;;;;;;5012022;28;20026;-77
2023/01/05 10:54:42;;;;;;;5.30;1.70;;;16.30;78.10;;;;;;5011624;28;20038;-77
2023/01/05 10:57:34;;;;;;;7.35;1.88;;;16.30;78.00;;;;;;5011674;28;20030;-77
2023/01/05 11:00:10;;;;;;;4.43;1.52;;;16.40;78.00;;;;;;5011862;28;20109;-78
2023/01/05 11:02:38;;;;;;;3.83;1.65;;;16.40;78.10;;;;;;5014689;28;20045;-78
2023/01/05 11:05:14;;;;;;;3.70;1.67;;;16.30;78.00;;;;;;5031601;28;20068;-77
2023/01/05 11:08:12;;;;;;;3.17;1.50;;;16.30;78.00;;;;;;5031369;28;20048;-77
2023/01/05 11:10:58;;;;;;;4.90;1.30;;;16.30;78.00;;;;;;5031040;28;20088;-77
2023/01/05 11:13:26;;;;;;;2.20;1.00;;;16.30;78.60;;;;;;5031232;28;20079;-77
2023/01/05 11:15:54;;;;;;;3.85;1.20;;;16.30;78.00;;;;;;5031341;28;20029;-78
2023/01/05 11:18:34;;;;;;;3.45;1.63;;;16.30;78.00;;;;;;5014811;28;20407;-77
2023/01/05 11:21:14;;;;;;;3.88;1.25;;;16.30;78.00;;;;;;5027846;28;20032;-78
2023/01/05 11:23:49;;;;;;;3.35;1.30;;;16.30;78.00;;;;;;5011421;28;20022;-78
2023/01/05 11:26:17;;;;;;;5.20;1.33;;;16.30;78.00;;;;;;5011306;28;20018;-77
2023/01/05 11:28:58;;;;;;;5.38;1.85;;;16.30;78.00;;;;;;5012617;28;20030;-78
2023/01/05 11:31:52;;;;;;;5.22;1.63;;;16.30;78.00;;;;;;5011965;28;20101;-78
2023/01/05 11:34:47;;;;;;;3.53;1.33;;;16.30;78.00;;;;;;5011362;28;20473;-77
2023/01/05 11:37:26;;;;;;;4.32;1.40;;;16.30;78.00;;;;;;5012074;28;20125;-78
2023/01/05 11:39:59;;;;;;;4.15;1.58;;;16.30;78.00;;;;;;5011408;28;20101;-77
2023/01/05 11:42:25;;;;;;;3.20;1.45;;;16.30;78.00;;;;;;4994941;28;20448;-77
2023/01/05 11:44:59;;;;;;;4.35;1.23;;;16.20;78.00;;;;;;5012411;28;20029;-78
2023/01/05 11:47:44;;;;;;;3.08;1.17;;;16.20;78.00;;;;;;5012338;28;20480;-78
2023/01/05 11:50:12;;;;;;;5.22;1.30;;;16.20;78.00;;;;;;5011134;28;20475;-78
2023/01/05 11:52:49;;;;;;;3.95;1.20;;;16.20;78.00;;;;;;5012532;28;20112;-78
2023/01/05 11:55:34;;;;;;;5.35;1.10;;;16.20;78.00;;;;;;5011141;28;20018;-78
2023/01/05 11:58:13;;;;;;;6.13;1.65;;;16.20;77.90;;;;;;5012337;28;20073;-78
2023/01/05 12:01:04;;;;;;;2.97;1.33;;;16.20;77.90;;;;;;5011211;28;20040;-77
2023/01/05 12:04:02;;;;;;;4.50;1.27;;;16.20;77.90;;;;;;5022467;28;20053;-78
2023/01/05 12:06:40;;;;;;;2.97;1.15;;;16.20;77.90;;;;;;5031109;28;20060;-78
2023/01/05 12:09:28;;;;;;;3.28;1.27;;;16.20;77.90;;;;;;5032074;28;20528;-77
2023/01/05 12:11:53;;;;;;;4.75;0.90;;;16.20;77.90;;;;;;5030797;28;20017;-78
2023/01/05 12:14:57;;;;;;;2.80;1.20;;;16.20;77.90;;;;;;5031624;28;20121;-78
2023/01/05 12:17:51;;;;;;;3.47;1.25;;;16.20;78.00;;;;;;5029685;28;20132;-77
2023/01/05 12:20:38;;;;;;;3.58;1.23;;;16.20;77.90;;;;;;5013157;28;20058;-78
2023/01/05 12:23:32;;;;;;;3.63;0.95;;;16.20;77.90;;;;;;5029564;28;20450;-77
2023/01/05 12:26:03;;;;;;;3.85;1.40;;;16.20;77.90;;;;;;5029941;28;20045;-78
2023/01/05 12:28:40;;;;;;;2.55;1.10;;;16.20;78.90;;;;;;5029578;28;20033;-78
2023/01/05 12:31:06;;;;;;;4.88;1.30;;;16.20;77.90;;;;;;5029686;28;20034;-78
2023/01/05 12:34:08;;;;;;;4.03;1.13;;;16.20;77.90;;;;;;5029487;28;20133;-78
2023/01/05 12:36:38;;;;;;;3.83;1.00;;;16.20;77.90;;;;;;5029512;28;20155;-78
2023/01/05 12:39:20;;;;;;;2.97;1.40;;;16.20;78.00;;;;;;5029423;28;20061;-78
2023/01/05 12:41:51;;;;;;;1.98;0.88;;;16.20;77.90;;;;;;5030102;28;20044;-77
2023/01/05 12:44:32;;;;;;;2.35;0.95;;;16.20;77.90;;;;;;5032999;28;20029;-78
2023/01/05 12:47:04;;;;;;;2.28;0.90;;;16.20;77.90;;;;;;5032773;28;20520;-78
2023/01/05 12:49:34;;;;;;;3.45;1.02;;;16.20;78.90;;;;;;5013923;28;20057;-78
2023/01/05 12:52:05;;;;;;;3.90;1.15;;;16.20;77.90;;;;;;5015254;28;20108;-78
2023/01/05 12:54:52;;;;;;;3.05;0.88;;;16.20;77.90;;;;;;5015021;28;20034;-78
2023/01/05 12:57:32;;;;;;;1.38;0.90;;;16.10;77.90;;;;;;5014169;28;20021;-77
2023/01/05 13:00:12;;;;;;;2.65;1.10;;;16.10;77.80;;;;;;5014097;28;20026;-78
2023/01/05 13:02:43;;;;;;;3.65;1.13;;;16.10;77.90;;;;;;5017219;28;20491;-78
2023/01/05 13:05:21;;;;;;;1.60;0.93;;;16.10;77.90;;;;;;5033817;28;20026;-78
2023/01/05 13:08:00;;;;;;;1.95;0.80;;;16.10;77.80;;;;;;5033174;28;20028;-78
2023/01/05 13:10:53;;;;;;;2.85;0.95;;;16.10;77.90;;;;;;5033608;28;20087;-78
2023/01/05 13:13:22;;;;;;;3.42;1.17;;;16.10;77.90;;;;;;5032722;28;20038;-78
2023/01/05 13:16:02;;;;;;;3.05;1.08;;;16.10;78.00;;;;;;4999900;28;20508;-78
2023/01/05 13:18:27;;;;;;;1.92;0.70;;;16.10;77.90;;;;;;5016018;28;20026;-78
2023/01/05 13:21:01;;;;;;;4.05;1.40;;;16.10;77.90;;;;;;5012921;28;20029;-78
2023/01/05 13:23:29;;;;;;;1.88;0.82;;;16.10;77.90;;;;;;4996067;28;20022;-78
2023/01/05 13:26:03;;;;;;;2.10;0.75;;;16.10;77.90;;;;;;4996257;28;20036;-78
2023/01/05 13:28:29;;;;;;;1.88;1.00;;;16.10;77.90;;;;;;4996276;28;20120;-78
2023/01/05 13:31:09;;;;;;;1.48;0.70;;;16.10;77.90;;;;;;4995960;28;20128;-78
2023/01/05 13:33:41;;;;;;;1.90;0.90;;;16.10;77.90;;;;;;5012406;28;20105;-78
2023/01/05 13:36:24;;;;;;;1.38;0.90;;;16.10;77.90;;;;;;4996406;28;20069;-78
2023/01/05 13:39:27;;;;;;;2.20;0.77;;;16.10;77.90;;;;;;4995893;28;20456;-78